sensor_id;sensor_type;location;lat;lon;timestamp;pressure;altitude;pressure_sealevel;temperature;humidity
22830;BME280;11581;51.250;6.778;2023-08-01T00:00:08;99518.81;;;19.78;89.38
22830;BME280;11581;51.250;6.778;2023-08-01T00:02:38;99524.91;;;19.85;89.52
22830;BME280;11581;51.250;6.778;2023-08-01T00:05:10;99478.47;;;19.54;89.43
22830;BME280;11581;51.250;6.778;2023-08-01T00:07:41;99498.81;;;19.79;89.59
22830;BME280;11581;51.250;6.778;2023-08-01T00:10:09;99445.69;;;19.50;89.47
22830;BME280;11581;51.250;6.778;2023-08-01T00:12:35;99517.84;;;19.84;89.41
22830;BME280;11581;51.250;6.778;2023-08-01T00:15:03;99571.16;;;19.84;89.44
22830;BME280;11581;51.250;6.778;2023-08-01T00:17:30;99506.00;;;19.85;89.67
22830;BME280;11581;51.250;6.778;2023-08-01T00:19:57;99500.56;;;19.85;89.90
22830;BME280;11581;51.250;6.778;2023-08-01T00:22:24;99493.03;;;19.87;90.19
22830;BME280;11581;51.250;6.778;2023-08-01T00:24:53;99494.69;;;19.88;90.25
22830;BME280;11581;51.250;6.778;2023-08-01T00:27:19;99469.88;;;19.92;89.90
22830;BME280;11581;51.250;6.778;2023-08-01T00:29:46;99372.31;;;19.12;90.00
22830;BME280;11581;51.250;6.778;2023-08-01T00:32:13;99503.50;;;19.96;90.28
22830;BME280;11581;51.250;6.778;2023-08-01T00:34:41;99509.47;;;19.98;90.25
22830;BME280;11581;51.250;6.778;2023-08-01T00:37:10;99511.72;;;20.01;90.17
22830;BME280;11581;51.250;6.778;2023-08-01T00:39:37;99488.09;;;19.84;90.31
22830;BME280;11581;51.250;6.778;2023-08-01T00:42:06;99515.84;;;20.03;90.02
22830;BME280;11581;51.250;6.778;2023-08-01T00:44:34;99461.50;;;19.81;89.54
22830;BME280;11581;51.250;6.778;2023-08-01T00:47:01;99379.97;;;19.38;89.38
22830;BME280;11581;51.250;6.778;2023-08-01T00:49:28;99473.50;;;19.97;89.32
22830;BME280;11581;51.250;6.778;2023-08-01T00:51:56;99448.09;;;19.86;89.46
22830;BME280;11581;51.250;6.778;2023-08-01T00:54:23;99218.84;;;18.52;89.14
22830;BME280;11581;51.250;6.778;2023-08-01T00:56:49;99427.31;;;19.75;89.36
22830;BME280;11581;51.250;6.778;2023-08-01T00:59:18;99487.47;;;20.06;88.95
22830;BME280;11581;51.250;6.778;2023-08-01T01:01:45;99325.69;;;19.17;89.06
22830;BME280;11581;51.250;6.778;2023-08-01T01:04:11;99464.19;;;20.05;88.61
22830;BME280;11581;51.250;6.778;2023-08-01T01:06:45;99460.91;;;20.03;88.47
22830;BME280;11581;51.250;6.778;2023-08-01T01:09:15;99384.41;;;19.56;88.62
22830;BME280;11581;51.250;6.778;2023-08-01T01:11:46;99230.59;;;18.57;88.43
22830;BME280;11581;51.250;6.778;2023-08-01T01:14:13;99438.34;;;19.85;88.75
22830;BME280;11581;51.250;6.778;2023-08-01T01:16:43;99463.84;;;20.01;88.88
22830;BME280;11581;51.250;6.778;2023-08-01T01:19:10;99468.41;;;20.01;88.67
22830;BME280;11581;51.250;6.778;2023-08-01T01:21:40;99471.59;;;19.98;88.34
22830;BME280;11581;51.250;6.778;2023-08-01T01:24:09;99326.03;;;18.97;88.25
22830;BME280;11581;51.250;6.778;2023-08-01T01:26:37;99458.53;;;19.94;88.84
22830;BME280;11581;51.250;6.778;2023-08-01T01:29:06;99446.69;;;19.96;88.65
22830;BME280;11581;51.250;6.778;2023-08-01T01:31:36;99357.88;;;19.41;88.62
22830;BME280;11581;51.250;6.778;2023-08-01T01:34:03;99282.69;;;19.04;88.70
22830;BME280;11581;51.250;6.778;2023-08-01T01:36:31;99427.16;;;19.93;89.00
22830;BME280;11581;51.250;6.778;2023-08-01T01:39:01;99303.59;;;19.20;88.88
22830;BME280;11581;51.250;6.778;2023-08-01T01:41:28;99414.00;;;19.85;88.96
22830;BME280;11581;51.250;6.778;2023-08-01T01:43:55;99313.94;;;19.23;88.58
22830;BME280;11581;51.250;6.778;2023-08-01T01:46:22;99421.16;;;19.92;88.63
22830;BME280;11581;51.250;6.778;2023-08-01T01:48:49;99418.47;;;19.92;88.54
22830;BME280;11581;51.250;6.778;2023-08-01T01:51:16;99361.63;;;19.52;88.49
22830;BME280;11581;51.250;6.778;2023-08-01T01:53:43;99339.91;;;19.35;88.53
22830;BME280;11581;51.250;6.778;2023-08-01T01:56:11;99430.56;;;19.89;88.36
22830;BME280;11581;51.250;6.778;2023-08-01T01:58:41;99396.88;;;19.57;88.71
22830;BME280;11581;51.250;6.778;2023-08-01T02:01:08;99447.88;;;19.88;88.83
22830;BME280;11581;51.250;6.778;2023-08-01T02:03:35;99437.28;;;19.86;88.63
22830;BME280;11581;51.250;6.778;2023-08-01T02:06:02;99362.94;;;19.49;88.14
22830;BME280;11581;51.250;6.778;2023-08-01T02:08:30;99425.78;;;19.79;87.26
22830;BME280;11581;51.250;6.778;2023-08-01T02:10:58;99401.81;;;19.60;86.91
22830;BME280;11581;51.250;6.778;2023-08-01T02:13:27;99423.66;;;19.70;86.80
22830;BME280;11581;51.250;6.778;2023-08-01T02:15:54;99296.09;;;18.87;86.87
22830;BME280;11581;51.250;6.778;2023-08-01T02:18:22;99422.97;;;19.63;87.22
22830;BME280;11581;51.250;6.778;2023-08-01T02:20:50;99318.53;;;18.99;87.37
22830;BME280;11581;51.250;6.778;2023-08-01T02:23:17;99401.25;;;19.46;87.74
22830;BME280;11581;51.250;6.778;2023-08-01T02:25:44;99421.44;;;19.55;87.88
22830;BME280;11581;51.250;6.778;2023-08-01T02:28:11;99424.16;;;19.55;87.94
22830;BME280;11581;51.250;6.778;2023-08-01T02:30:40;99483.88;;;19.54;87.78
22830;BME280;11581;51.250;6.778;2023-08-01T02:33:08;99245.59;;;18.42;87.82
22830;BME280;11581;51.250;6.778;2023-08-01T02:35:35;99253.28;;;18.15;87.80
22830;BME280;11581;51.250;6.778;2023-08-01T02:38:04;99441.91;;;19.51;87.23
22830;BME280;11581;51.250;6.778;2023-08-01T02:40:32;99454.84;;;19.49;87.39
22830;BME280;11581;51.250;6.778;2023-08-01T02:42:58;99247.44;;;18.30;86.55
22830;BME280;11581;51.250;6.778;2023-08-01T02:45:26;99439.56;;;19.43;86.42
22830;BME280;11581;51.250;6.778;2023-08-01T02:47:56;99446.47;;;19.39;85.49
22830;BME280;11581;51.250;6.778;2023-08-01T02:50:22;99442.63;;;19.35;85.95
22830;BME280;11581;51.250;6.778;2023-08-01T02:52:49;99403.66;;;19.02;85.57
22830;BME280;11581;51.250;6.778;2023-08-01T02:55:17;99445.06;;;19.25;85.81
22830;BME280;11581;51.250;6.778;2023-08-01T02:57:44;99385.69;;;18.84;85.90
22830;BME280;11581;51.250;6.778;2023-08-01T03:00:13;99447.06;;;19.18;85.96
22830;BME280;11581;51.250;6.778;2023-08-01T03:02:43;99366.28;;;18.64;85.70
22830;BME280;11581;51.250;6.778;2023-08-01T03:05:11;99502.03;;;19.12;85.71
22830;BME280;11581;51.250;6.778;2023-08-01T03:07:38;99460.88;;;19.10;86.08
22830;BME280;11581;51.250;6.778;2023-08-01T03:10:05;99455.13;;;19.07;86.00
22830;BME280;11581;51.250;6.778;2023-08-01T03:12:32;99462.41;;;19.06;86.20
22830;BME280;11581;51.250;6.778;2023-08-01T03:14:59;99470.19;;;19.03;85.69
22830;BME280;11581;51.250;6.778;2023-08-01T03:17:27;99409.81;;;18.27;85.51
22830;BME280;11581;51.250;6.778;2023-08-01T03:19:54;99396.41;;;18.50;85.65
22830;BME280;11581;51.250;6.778;2023-08-01T03:22:24;99493.97;;;18.94;85.58
22830;BME280;11581;51.250;6.778;2023-08-01T03:24:57;99377.69;;;18.07;85.79
22830;BME280;11581;51.250;6.778;2023-08-01T03:27:24;99498.19;;;18.90;85.63
22830;BME280;11581;51.250;6.778;2023-08-01T03:29:51;99357.03;;;18.01;85.70
22830;BME280;11581;51.250;6.778;2023-08-01T03:32:19;99482.91;;;18.84;85.47
22830;BME280;11581;51.250;6.778;2023-08-01T03:34:47;99431.16;;;18.46;85.29
22830;BME280;11581;51.250;6.778;2023-08-01T03:37:14;99498.78;;;18.81;85.63
22830;BME280;11581;51.250;6.778;2023-08-01T03:39:46;99351.44;;;17.85;84.51
22830;BME280;11581;51.250;6.778;2023-08-01T03:42:13;99350.84;;;17.83;85.17
22830;BME280;11581;51.250;6.778;2023-08-01T03:44:39;99440.38;;;18.21;85.07
22830;BME280;11581;51.250;6.778;2023-08-01T03:47:08;99360.22;;;17.80;84.72
22830;BME280;11581;51.250;6.778;2023-08-01T03:49:36;99411.72;;;18.08;84.66
22830;BME280;11581;51.250;6.778;2023-08-01T03:52:04;99490.66;;;18.51;85.24
22830;BME280;11581;51.250;6.778;2023-08-01T03:54:32;99343.97;;;17.50;85.17
22830;BME280;11581;51.250;6.778;2023-08-01T03:57:05;99517.81;;;18.56;84.89
22830;BME280;11581;51.250;6.778;2023-08-01T03:59:33;99513.69;;;18.54;85.58
22830;BME280;11581;51.250;6.778;2023-08-01T04:02:03;99449.63;;;18.13;85.45
22830;BME280;11581;51.250;6.778;2023-08-01T04:04:39;99514.97;;;18.51;84.94
22830;BME280;11581;51.250;6.778;2023-08-01T04:07:07;99423.41;;;17.84;85.58
22830;BME280;11581;51.250;6.778;2023-08-01T04:09:34;99471.34;;;18.18;85.57
22830;BME280;11581;51.250;6.778;2023-08-01T04:12:02;99530.44;;;18.44;85.13
22830;BME280;11581;51.250;6.778;2023-08-01T04:14:32;99525.25;;;18.43;85.07
22830;BME280;11581;51.250;6.778;2023-08-01T04:16:59;99517.59;;;18.40;85.46
22830;BME280;11581;51.250;6.778;2023-08-01T04:19:26;99392.34;;;17.63;85.27
22830;BME280;11581;51.250;6.778;2023-08-01T04:21:53;99510.16;;;18.35;85.44
22830;BME280;11581;51.250;6.778;2023-08-01T04:24:20;99372.06;;;17.43;85.66
22830;BME280;11581;51.250;6.778;2023-08-01T04:26:50;99519.75;;;18.31;85.57
22830;BME280;11581;51.250;6.778;2023-08-01T04:29:18;99539.72;;;18.30;85.68
22830;BME280;11581;51.250;6.778;2023-08-01T04:31:47;99515.66;;;18.29;85.93
22830;BME280;11581;51.250;6.778;2023-08-01T04:34:19;99481.34;;;18.00;85.52
22830;BME280;11581;51.250;6.778;2023-08-01T04:36:46;99514.81;;;18.28;85.94
22830;BME280;11581;51.250;6.778;2023-08-01T04:39:15;99513.19;;;18.27;86.08
22830;BME280;11581;51.250;6.778;2023-08-01T04:41:42;99513.97;;;18.28;86.14
22830;BME280;11581;51.250;6.778;2023-08-01T04:44:11;99515.88;;;18.27;86.33
22830;BME280;11581;51.250;6.778;2023-08-01T04:46:39;99518.56;;;18.27;86.03
22830;BME280;11581;51.250;6.778;2023-08-01T04:49:07;99382.97;;;17.48;86.32
22830;BME280;11581;51.250;6.778;2023-08-01T04:51:34;99518.56;;;18.27;86.22
22830;BME280;11581;51.250;6.778;2023-08-01T04:54:01;99526.44;;;18.29;86.46
22830;BME280;11581;51.250;6.778;2023-08-01T04:56:28;99469.09;;;17.97;86.26
22830;BME280;11581;51.250;6.778;2023-08-01T04:58:55;99489.44;;;18.00;85.94
22830;BME280;11581;51.250;6.778;2023-08-01T05:01:22;99443.19;;;17.78;85.80
22830;BME280;11581;51.250;6.778;2023-08-01T05:03:51;99485.44;;;18.02;85.27
22830;BME280;11581;51.250;6.778;2023-08-01T05:06:18;99498.72;;;18.04;85.33
22830;BME280;11581;51.250;6.778;2023-08-01T05:08:45;99440.81;;;17.70;85.45
22830;BME280;11581;51.250;6.778;2023-08-01T05:11:13;99537.47;;;18.27;85.82
22830;BME280;11581;51.250;6.778;2023-08-01T05:13:40;99378.16;;;17.32;85.58
22830;BME280;11581;51.250;6.778;2023-08-01T05:16:06;99315.63;;;16.87;85.43
22830;BME280;11581;51.250;6.778;2023-08-01T05:18:33;99550.13;;;18.27;85.78
22830;BME280;11581;51.250;6.778;2023-08-01T05:21:01;99520.66;;;18.07;85.68
22830;BME280;11581;51.250;6.778;2023-08-01T05:23:28;99492.06;;;17.88;86.26
22830;BME280;11581;51.250;6.778;2023-08-01T05:25:55;99406.06;;;17.37;86.51
22830;BME280;11581;51.250;6.778;2023-08-01T05:28:22;99552.16;;;18.31;86.75
22830;BME280;11581;51.250;6.778;2023-08-01T05:30:49;99562.50;;;18.34;86.74
22830;BME280;11581;51.250;6.778;2023-08-01T05:33:16;99386.69;;;17.29;86.90
22830;BME280;11581;51.250;6.778;2023-08-01T05:35:43;99521.13;;;18.22;86.45
22830;BME280;11581;51.250;6.778;2023-08-01T05:38:11;99566.81;;;18.42;86.47
22830;BME280;11581;51.250;6.778;2023-08-01T05:40:39;99506.88;;;18.15;86.39
22830;BME280;11581;51.250;6.778;2023-08-01T05:43:06;99562.38;;;18.47;86.39
22830;BME280;11581;51.250;6.778;2023-08-01T05:45:35;99559.22;;;18.50;86.71
22830;BME280;11581;51.250;6.778;2023-08-01T05:48:02;99372.19;;;17.30;86.40
22830;BME280;11581;51.250;6.778;2023-08-01T05:50:29;99574.50;;;18.56;86.39
22830;BME280;11581;51.250;6.778;2023-08-01T05:52:55;99498.19;;;17.95;86.04
22830;BME280;11581;51.250;6.778;2023-08-01T05:55:24;99577.78;;;18.58;85.81
22830;BME280;11581;51.250;6.778;2023-08-01T05:57:51;99575.69;;;18.60;85.99
22830;BME280;11581;51.250;6.778;2023-08-01T06:00:19;99579.25;;;18.61;85.46
22830;BME280;11581;51.250;6.778;2023-08-01T06:02:47;99577.94;;;18.63;86.07
22830;BME280;11581;51.250;6.778;2023-08-01T06:05:15;99578.53;;;18.65;85.56
22830;BME280;11581;51.250;6.778;2023-08-01T06:07:42;99524.06;;;18.39;85.53
22830;BME280;11581;51.250;6.778;2023-08-01T06:10:09;99584.09;;;18.70;85.89
22830;BME280;11581;51.250;6.778;2023-08-01T06:12:37;99583.88;;;18.72;85.10
22830;BME280;11581;51.250;6.778;2023-08-01T06:15:06;99519.31;;;18.34;85.46
22830;BME280;11581;51.250;6.778;2023-08-01T06:17:33;99526.66;;;18.45;85.29
22830;BME280;11581;51.250;6.778;2023-08-01T06:20:00;99596.47;;;18.78;85.73
22830;BME280;11581;51.250;6.778;2023-08-01T06:22:29;99395.72;;;17.59;85.55
22830;BME280;11581;51.250;6.778;2023-08-01T06:24:56;99589.31;;;18.83;85.78
22830;BME280;11581;51.250;6.778;2023-08-01T06:27:23;99511.44;;;18.33;85.60
22830;BME280;11581;51.250;6.778;2023-08-01T06:29:51;99588.19;;;18.91;85.39
22830;BME280;11581;51.250;6.778;2023-08-01T06:32:18;99558.19;;;18.81;86.30
22830;BME280;11581;51.250;6.778;2023-08-01T06:34:44;99591.31;;;19.06;86.36
22830;BME280;11581;51.250;6.778;2023-08-01T06:37:11;99605.31;;;19.14;86.62
22830;BME280;11581;51.250;6.778;2023-08-01T06:39:38;99594.75;;;19.24;86.61
22830;BME280;11581;51.250;6.778;2023-08-01T06:42:06;99589.88;;;19.33;86.25
22830;BME280;11581;51.250;6.778;2023-08-01T06:44:33;99593.69;;;19.43;86.28
22830;BME280;11581;51.250;6.778;2023-08-01T06:47:02;99556.72;;;19.26;85.86
22830;BME280;11581;51.250;6.778;2023-08-01T06:49:28;99542.06;;;19.33;85.85
22830;BME280;11581;51.250;6.778;2023-08-01T06:51:55;99591.13;;;19.71;85.54
22830;BME280;11581;51.250;6.778;2023-08-01T06:54:22;99523.25;;;19.38;84.87
22830;BME280;11581;51.250;6.778;2023-08-01T06:56:49;99567.38;;;19.73;85.32
22830;BME280;11581;51.250;6.778;2023-08-01T06:59:16;99587.16;;;19.97;85.65
22830;BME280;11581;51.250;6.778;2023-08-01T07:01:43;99588.53;;;20.11;85.44
22830;BME280;11581;51.250;6.778;2023-08-01T07:04:13;99609.66;;;20.21;83.77
22830;BME280;11581;51.250;6.778;2023-08-01T07:06:41;99591.72;;;20.31;84.37
22830;BME280;11581;51.250;6.778;2023-08-01T07:09:08;99608.41;;;20.40;83.42
22830;BME280;11581;51.250;6.778;2023-08-01T07:11:38;99564.19;;;20.23;82.59
22830;BME280;11581;51.250;6.778;2023-08-01T07:14:09;99547.00;;;20.29;83.53
22830;BME280;11581;51.250;6.778;2023-08-01T07:17:13;99606.94;;;20.72;79.47
22830;BME280;11581;51.250;6.778;2023-08-01T07:19:57;99609.50;;;20.90;81.06
22830;BME280;11581;51.250;6.778;2023-08-01T07:22:24;99609.00;;;21.04;83.10
22830;BME280;11581;51.250;6.778;2023-08-01T07:24:52;99562.91;;;20.65;81.13
22830;BME280;11581;51.250;6.778;2023-08-01T07:27:19;99616.00;;;21.17;81.01
22830;BME280;11581;51.250;6.778;2023-08-01T07:29:48;99558.34;;;20.93;78.37
22830;BME280;11581;51.250;6.778;2023-08-01T07:32:15;99560.41;;;20.75;79.43
22830;BME280;11581;51.250;6.778;2023-08-01T07:34:44;99574.84;;;20.92;79.46
22830;BME280;11581;51.250;6.778;2023-08-01T07:37:15;99494.81;;;20.45;78.44
22830;BME280;11581;51.250;6.778;2023-08-01T07:39:42;99622.59;;;21.21;79.04
22830;BME280;11581;51.250;6.778;2023-08-01T07:42:14;99625.31;;;21.21;78.98
22830;BME280;11581;51.250;6.778;2023-08-01T07:44:42;99631.53;;;21.21;79.54
22830;BME280;11581;51.250;6.778;2023-08-01T07:47:10;99621.03;;;21.25;80.57
22830;BME280;11581;51.250;6.778;2023-08-01T07:49:37;99629.84;;;21.32;81.23
22830;BME280;11581;51.250;6.778;2023-08-01T07:52:04;99565.38;;;21.06;81.06
22830;BME280;11581;51.250;6.778;2023-08-01T07:54:33;99615.59;;;21.53;79.88
22830;BME280;11581;51.250;6.778;2023-08-01T07:57:00;99551.03;;;21.22;81.45
22830;BME280;11581;51.250;6.778;2023-08-01T07:59:28;99576.53;;;21.54;82.28
22830;BME280;11581;51.250;6.778;2023-08-01T08:01:55;99634.38;;;22.04;83.41
22830;BME280;11581;51.250;6.778;2023-08-01T08:04:24;99624.38;;;22.26;83.06
22830;BME280;11581;51.250;6.778;2023-08-01T08:06:50;99624.13;;;22.44;81.04
22830;BME280;11581;51.250;6.778;2023-08-01T08:09:20;99608.38;;;22.46;78.66
22830;BME280;11581;51.250;6.778;2023-08-01T08:11:50;99612.03;;;22.52;74.46
22830;BME280;11581;51.250;6.778;2023-08-01T08:14:17;99635.41;;;22.74;77.03
22830;BME280;11581;51.250;6.778;2023-08-01T08:16:46;99635.47;;;22.79;77.48
22830;BME280;11581;51.250;6.778;2023-08-01T08:19:13;99623.03;;;22.83;76.81
22830;BME280;11581;51.250;6.778;2023-08-01T08:21:40;99550.69;;;22.39;75.55
22830;BME280;11581;51.250;6.778;2023-08-01T08:24:10;99631.22;;;22.88;74.91
22830;BME280;11581;51.250;6.778;2023-08-01T08:26:37;99635.28;;;22.86;74.51
22830;BME280;11581;51.250;6.778;2023-08-01T08:29:06;99591.03;;;22.47;71.99
22830;BME280;11581;51.250;6.778;2023-08-01T08:31:36;99648.50;;;22.77;71.37
22830;BME280;11581;51.250;6.778;2023-08-01T08:34:05;99645.44;;;22.74;74.96
22830;BME280;11581;51.250;6.778;2023-08-01T08:36:32;99642.47;;;22.75;76.04
22830;BME280;11581;51.250;6.778;2023-08-01T08:38:59;99640.66;;;22.81;75.63
22830;BME280;11581;51.250;6.778;2023-08-01T08:41:35;99583.44;;;22.49;73.77
22830;BME280;11581;51.250;6.778;2023-08-01T08:44:07;99645.97;;;22.92;71.62
22830;BME280;11581;51.250;6.778;2023-08-01T08:46:41;99477.28;;;21.91;68.57
22830;BME280;11581;51.250;6.778;2023-08-01T08:49:09;99638.13;;;22.96;72.85
22830;BME280;11581;51.250;6.778;2023-08-01T08:51:36;99581.91;;;22.53;72.41
22830;BME280;11581;51.250;6.778;2023-08-01T08:54:05;99639.44;;;22.93;71.81
22830;BME280;11581;51.250;6.778;2023-08-01T08:56:34;99630.72;;;22.91;70.24
22830;BME280;11581;51.250;6.778;2023-08-01T08:59:02;99645.41;;;22.90;71.99
22830;BME280;11581;51.250;6.778;2023-08-01T09:01:31;99656.22;;;22.85;69.45
22830;BME280;11581;51.250;6.778;2023-08-01T09:04:00;99592.66;;;22.48;71.29
22830;BME280;11581;51.250;6.778;2023-08-01T09:06:32;99650.38;;;22.77;70.84
22830;BME280;11581;51.250;6.778;2023-08-01T09:09:04;99651.34;;;22.87;75.18
22830;BME280;11581;51.250;6.778;2023-08-01T09:11:39;99687.25;;;23.32;76.10
22830;BME280;11581;51.250;6.778;2023-08-01T09:14:07;99262.28;;;21.62;85.76
22830;BME280;11581;51.250;6.778;2023-08-01T09:16:36;99582.75;;;24.28;83.75
22830;BME280;11581;51.250;6.778;2023-08-01T09:19:02;99642.69;;;25.41;85.96
22830;BME280;11581;51.250;6.778;2023-08-01T09:21:32;99583.75;;;25.85;85.69
22830;BME280;11581;51.250;6.778;2023-08-01T09:24:08;99643.16;;;26.94;71.03
22830;BME280;11581;51.250;6.778;2023-08-01T09:26:37;99612.00;;;27.38;73.89
22830;BME280;11581;51.250;6.778;2023-08-01T09:29:04;99641.47;;;27.95;68.27
22830;BME280;11581;51.250;6.778;2023-08-01T09:31:33;99637.75;;;28.15;63.48
22830;BME280;11581;51.250;6.778;2023-08-01T09:34:04;99633.25;;;28.24;58.43
22830;BME280;11581;51.250;6.778;2023-08-01T09:36:32;99454.53;;;27.12;61.93
22830;BME280;11581;51.250;6.778;2023-08-01T09:39:01;99596.72;;;28.04;60.24
22830;BME280;11581;51.250;6.778;2023-08-01T09:41:30;99535.38;;;27.38;60.26
22830;BME280;11581;51.250;6.778;2023-08-01T09:44:10;99655.16;;;28.29;56.06
22830;BME280;11581;51.250;6.778;2023-08-01T09:46:38;99639.56;;;28.24;59.61
22830;BME280;11581;51.250;6.778;2023-08-01T09:49:11;99647.81;;;28.19;56.20
22830;BME280;11581;51.250;6.778;2023-08-01T09:51:46;99526.03;;;27.39;54.08
22830;BME280;11581;51.250;6.778;2023-08-01T09:54:16;99643.25;;;28.09;55.39
22830;BME280;11581;51.250;6.778;2023-08-01T09:56:45;99643.63;;;27.98;55.27
22830;BME280;11581;51.250;6.778;2023-08-01T09:59:18;99649.75;;;27.80;53.65
22830;BME280;11581;51.250;6.778;2023-08-01T10:01:48;99626.19;;;27.45;53.44
22830;BME280;11581;51.250;6.778;2023-08-01T10:04:23;99639.13;;;27.35;52.25
22830;BME280;11581;51.250;6.778;2023-08-01T10:06:58;99595.38;;;26.76;52.64
22830;BME280;11581;51.250;6.778;2023-08-01T10:09:32;99148.25;;;23.90;56.56
22830;BME280;11581;51.250;6.778;2023-08-01T10:12:02;99643.16;;;26.84;56.16
22830;BME280;11581;51.250;6.778;2023-08-01T10:14:32;99524.78;;;26.10;58.84
22830;BME280;11581;51.250;6.778;2023-08-01T10:16:59;99654.94;;;26.89;59.85
22830;BME280;11581;51.250;6.778;2023-08-01T10:19:30;99635.47;;;27.01;54.36
22830;BME280;11581;51.250;6.778;2023-08-01T10:21:58;99618.78;;;26.97;59.76
22830;BME280;11581;51.250;6.778;2023-08-01T10:24:27;99589.22;;;26.99;58.62
22830;BME280;11581;51.250;6.778;2023-08-01T10:26:55;99646.13;;;27.51;58.36
22830;BME280;11581;51.250;6.778;2023-08-01T10:29:22;99463.19;;;26.32;57.15
22830;BME280;11581;51.250;6.778;2023-08-01T10:31:52;99639.78;;;27.60;51.99
22830;BME280;11581;51.250;6.778;2023-08-01T10:34:21;99638.72;;;27.56;55.71
22830;BME280;11581;51.250;6.778;2023-08-01T10:36:56;99648.09;;;27.45;50.61
22830;BME280;11581;51.250;6.778;2023-08-01T10:39:24;99533.66;;;26.45;54.29
22830;BME280;11581;51.250;6.778;2023-08-01T10:41:59;99610.84;;;26.96;51.17
22830;BME280;11581;51.250;6.778;2023-08-01T10:44:28;99645.06;;;26.93;54.62
22830;BME280;11581;51.250;6.778;2023-08-01T10:46:58;99650.34;;;26.70;54.66
22830;BME280;11581;51.250;6.778;2023-08-01T10:49:36;99650.09;;;26.46;51.53
22830;BME280;11581;51.250;6.778;2023-08-01T10:52:16;99553.47;;;25.47;51.67
22830;BME280;11581;51.250;6.778;2023-08-01T10:54:47;99684.56;;;26.07;53.30
22830;BME280;11581;51.250;6.778;2023-08-01T10:57:15;99583.38;;;25.02;55.89
22830;BME280;11581;51.250;6.778;2023-08-01T10:59:44;99379.97;;;23.99;56.34
22830;BME280;11581;51.250;6.778;2023-08-01T11:02:11;99541.34;;;24.83;57.54
22830;BME280;11581;51.250;6.778;2023-08-01T11:04:38;99671.66;;;25.57;58.00
22830;BME280;11581;51.250;6.778;2023-08-01T11:07:07;99600.34;;;25.19;57.05
22830;BME280;11581;51.250;6.778;2023-08-01T11:09:38;99307.63;;;23.51;59.21
22830;BME280;11581;51.250;6.778;2023-08-01T11:12:05;99676.31;;;25.82;59.54
22830;BME280;11581;51.250;6.778;2023-08-01T11:14:35;99677.47;;;26.01;59.90
22830;BME280;11581;51.250;6.778;2023-08-01T11:17:02;99622.00;;;25.95;61.31
22830;BME280;11581;51.250;6.778;2023-08-01T11:19:30;99352.69;;;24.76;61.71
22830;BME280;11581;51.250;6.778;2023-08-01T11:21:57;99678.28;;;27.30;60.01
22830;BME280;11581;51.250;6.778;2023-08-01T11:24:28;99506.19;;;26.75;54.88
22830;BME280;11581;51.250;6.778;2023-08-01T11:26:56;99679.44;;;28.12;54.56
22830;BME280;11581;51.250;6.778;2023-08-01T11:29:24;99686.69;;;28.26;51.34
22830;BME280;11581;51.250;6.778;2023-08-01T11:31:54;99704.50;;;28.29;47.70
22830;BME280;11581;51.250;6.778;2023-08-01T11:34:22;99684.91;;;28.12;49.12
22830;BME280;11581;51.250;6.778;2023-08-01T11:36:50;99683.31;;;27.62;48.80
22830;BME280;11581;51.250;6.778;2023-08-01T11:39:17;99677.25;;;27.16;49.02
22830;BME280;11581;51.250;6.778;2023-08-01T11:41:46;99754.16;;;27.15;49.79
22830;BME280;11581;51.250;6.778;2023-08-01T11:44:13;99747.94;;;26.69;50.99
22830;BME280;11581;51.250;6.778;2023-08-01T11:46:40;99699.81;;;25.88;51.67
22830;BME280;11581;51.250;6.778;2023-08-01T11:49:08;99729.28;;;25.61;52.20
22830;BME280;11581;51.250;6.778;2023-08-01T11:51:39;99748.66;;;25.03;53.00
22830;BME280;11581;51.250;6.778;2023-08-01T11:54:08;99699.56;;;24.20;55.30
22830;BME280;11581;51.250;6.778;2023-08-01T11:56:37;99763.13;;;23.98;56.70
22830;BME280;11581;51.250;6.778;2023-08-01T11:59:11;99758.22;;;23.52;57.33
22830;BME280;11581;51.250;6.778;2023-08-01T12:01:39;99753.09;;;23.13;59.27
22830;BME280;11581;51.250;6.778;2023-08-01T12:04:08;99749.88;;;22.78;60.13
22830;BME280;11581;51.250;6.778;2023-08-01T12:06:37;99740.19;;;22.49;61.88
22830;BME280;11581;51.250;6.778;2023-08-01T12:09:08;99710.72;;;22.08;62.18
22830;BME280;11581;51.250;6.778;2023-08-01T12:11:37;99711.59;;;21.80;63.30
22830;BME280;11581;51.250;6.778;2023-08-01T12:14:07;99725.16;;;21.80;64.31
22830;BME280;11581;51.250;6.778;2023-08-01T12:16:37;99755.94;;;21.85;64.20
22830;BME280;11581;51.250;6.778;2023-08-01T12:19:06;99751.72;;;21.78;64.73
22830;BME280;11581;51.250;6.778;2023-08-01T12:21:34;99709.28;;;21.44;65.54
22830;BME280;11581;51.250;6.778;2023-08-01T12:24:02;99659.78;;;21.09;65.43
22830;BME280;11581;51.250;6.778;2023-08-01T12:26:30;99759.56;;;21.63;66.18
22830;BME280;11581;51.250;6.778;2023-08-01T12:28:57;99755.09;;;21.57;66.76
22830;BME280;11581;51.250;6.778;2023-08-01T12:31:25;99754.84;;;21.58;66.97
22830;BME280;11581;51.250;6.778;2023-08-01T12:33:53;99657.78;;;21.04;67.52
22830;BME280;11581;51.250;6.778;2023-08-01T12:36:20;99575.44;;;20.66;68.53
22830;BME280;11581;51.250;6.778;2023-08-01T12:38:48;99748.88;;;21.84;69.39
22830;BME280;11581;51.250;6.778;2023-08-01T12:41:15;99763.03;;;22.03;69.39
22830;BME280;11581;51.250;6.778;2023-08-01T12:43:42;99741.16;;;22.26;69.25
22830;BME280;11581;51.250;6.778;2023-08-01T12:46:10;99727.19;;;22.51;68.93
22830;BME280;11581;51.250;6.778;2023-08-01T12:48:36;99739.31;;;22.81;69.24
22830;BME280;11581;51.250;6.778;2023-08-01T12:51:04;99719.28;;;22.87;67.82
22830;BME280;11581;51.250;6.778;2023-08-01T12:53:32;99723.41;;;23.54;68.95
22830;BME280;11581;51.250;6.778;2023-08-01T12:56:04;99739.25;;;24.11;68.58
22830;BME280;11581;51.250;6.778;2023-08-01T12:58:32;99735.84;;;24.62;68.15
22830;BME280;11581;51.250;6.778;2023-08-01T13:01:02;99730.19;;;25.15;62.81
22830;BME280;11581;51.250;6.778;2023-08-01T13:03:32;99733.66;;;25.67;63.51
22830;BME280;11581;51.250;6.778;2023-08-01T13:05:58;99727.75;;;26.20;63.36